Bryce Canyon Airport
KBCE : now visible

Airfield :











YOU CAN JOIN US ON...

 
LOGIN :

Register | Disclaimer

   EN    FR    IT 

 









Legend :    VFR   Marginal VFR   IFR   Intensive IFR   Very Intensive IFR
Visi :
Ceiling :
>= 8 km
>= 3000ft
5 to 8 km
1000 to 3000 ft
1500m to 5 km
500 to 1000 ft
800 to 1500m
200 to 500 ft
< 800m
< 200 ft
Symbols :   Thunderstorms  Fog  Heavy snow  Heavy precipitations  Wind > 20 kt






- Airport Elevation : 7590 ft


KBCE - Bryce Canyon

CURRENT METAR :
  • 272153Z AUTO 32014G28KT 10SM -RA BKN065 OVC085 19/01 A3020 RMK AO2 PK WND 04028/2145 LTG DSNT NW RAB38 SLP135 P0000 T01890011 $

EXPIRED METARs :
  • 272053Z AUTO 14014G18KT 10SM SCT100 21/04 A3019 RMK AO2 LTG DSNT NE SLP121 T02110044 58013
  • 271953Z AUTO 13013G18KT 10SM CLR 21/05 A3021 RMK AO2 SLP128 T02060050

TAF KBCE
Valid from the 27 at 18:00 until the 28 at 18:00 UTC


271720Z 2718/2818 VRB04KT P6SM FEW120
FM271900 15007KT P6SM SCT120
FM272100 30008KT P6SM VCSH BKN080 OVC120
FM280200 28007KT P6SM BKN120
KZLC FIR / North America



MET'MAP, your aeronautical weather chart ! - Copyright ORBIFLY December 2007 - Disclaimer

ORBIFLY MET'MAP TEAM :

Programming & Development : Alexandra Zaïnal
Concept & original design : Baudouin d'Aumeries
Assistance for programming : Marc-Olivier Méhu
Technical & hardware support : Manuel Goepfert

Contact : metmap@orbifly.com




SOURCES & CREDITS :

   NOAA       Earth
Advisory